Time;durP1;ratioP1;P1;durP2;ratioP2;P2;SDS_P1;SDS_P2;PMS_P1;PMS_P2;Temp;Humidity;BMP_temperature;BMP_pressure;BME280_temperature;BME280_humidity;BME280_pressure;Samples;Min_cycle;Max_cycle;Signal;HPM_P1;HPM_P2
2021/07/20 00:00:18;;;;;;;10.23;2.83;;;;;;;11.64;100.00;100986.53;4871289;29;20085;-82
2021/07/20 00:02:46;;;;;;;12.80;3.08;;;;;;;11.64;100.00;100996.91;4854617;29;20060;-82
2021/07/20 00:05:13;;;;;;;9.73;3.08;;;;;;;11.60;100.00;100992.63;4853454;29;20033;-82
2021/07/20 00:07:40;;;;;;;8.38;3.10;;;;;;;11.53;100.00;100993.63;4853083;29;20109;-82
2021/07/20 00:10:12;;;;;;;7.82;2.83;;;;;;;11.53;100.00;100991.88;4870056;29;20056;-82
2021/07/20 00:12:38;;;;;;;6.40;2.72;;;;;;;11.48;100.00;100990.22;4873832;29;20033;-82
2021/07/20 00:15:06;;;;;;;11.77;3.40;;;;;;;11.47;100.00;100989.38;4878554;29;20090;-82
2021/07/20 00:17:31;;;;;;;12.18;3.72;;;;;;;11.44;100.00;100988.56;4870594;29;20014;-81
2021/07/20 00:19:57;;;;;;;9.75;3.50;;;;;;;11.40;100.00;100995.53;4871295;29;20053;-82
2021/07/20 00:22:22;;;;;;;10.35;3.30;;;;;;;11.42;100.00;100995.50;4871390;29;20013;-81
2021/07/20 00:24:47;;;;;;;9.88;2.88;;;;;;;11.35;100.00;100983.50;4870896;29;20026;-82
2021/07/20 00:27:12;;;;;;;8.65;2.92;;;;;;;11.28;100.00;100993.13;4856234;29;20029;-82
2021/07/20 00:29:38;;;;;;;10.88;2.80;;;;;;;11.31;100.00;100989.63;4854956;29;20037;-82
2021/07/20 00:32:04;;;;;;;9.45;3.10;;;;;;;11.30;100.00;100991.38;4854610;29;20030;-83
2021/07/20 00:34:29;;;;;;;9.85;3.55;;;;;;;11.32;100.00;100997.38;4854565;29;20034;-83
2021/07/20 00:36:55;;;;;;;9.38;3.45;;;;;;;11.40;100.00;101000.75;4854379;29;20039;-83
2021/07/20 00:39:20;;;;;;;10.88;3.30;;;;;;;11.35;100.00;101004.28;4853915;29;20094;-83
2021/07/20 00:41:45;;;;;;;9.50;3.10;;;;;;;11.32;100.00;100999.13;4854416;29;20517;-83
2021/07/20 00:44:10;;;;;;;9.70;3.05;;;;;;;11.32;100.00;101002.56;4855210;29;20025;-83
2021/07/20 00:46:36;;;;;;;11.07;3.22;;;;;;;11.23;100.00;101006.16;4855765;29;20034;-83
2021/07/20 00:49:01;;;;;;;8.68;3.28;;;;;;;11.24;100.00;101002.69;4856018;29;20112;-82
2021/07/20 00:51:26;;;;;;;7.07;3.13;;;;;;;11.26;100.00;101000.91;4850840;29;20021;-82
2021/07/20 00:53:52;;;;;;;13.98;3.53;;;;;;;11.24;100.00;100997.50;4879140;29;20064;-82
2021/07/20 00:56:17;;;;;;;10.48;3.60;;;;;;;11.28;100.00;100993.97;4878352;29;20025;-82
2021/07/20 00:58:43;;;;;;;10.52;3.22;;;;;;;11.25;100.00;101001.81;4860796;29;20029;-82
2021/07/20 01:01:09;;;;;;;11.15;3.58;;;;;;;11.25;100.00;101000.97;4860479;29;20029;-82
2021/07/20 01:03:35;;;;;;;9.70;3.45;;;;;;;11.22;100.00;101001.00;4859509;29;20043;-82
2021/07/20 01:06:04;;;;;;;9.77;3.60;;;;;;;11.18;100.00;101001.94;4874386;29;20029;-82
2021/07/20 01:08:31;;;;;;;8.82;3.65;;;;;;;11.19;100.00;100994.09;4858398;29;20022;-82
2021/07/20 01:11:00;;;;;;;8.55;3.08;;;;;;;11.17;100.00;100990.66;4857244;29;20089;-82
2021/07/20 01:13:26;;;;;;;10.75;3.78;;;;;;;11.19;100.00;100991.50;4857471;29;20029;-82
2021/07/20 01:15:52;;;;;;;9.00;3.30;;;;;;;11.22;100.00;100988.00;4857703;29;20029;-82
2021/07/20 01:18:17;;;;;;;13.75;4.15;;;;;;;11.20;100.00;100995.81;4856308;29;20040;-82
2021/07/20 01:20:43;;;;;;;9.88;3.45;;;;;;;11.11;100.00;100984.69;4855735;29;20466;-82
2021/07/20 01:23:17;;;;;;;11.85;3.35;;;;;;;11.14;100.00;100985.50;4873115;29;20394;-82
2021/07/20 01:25:43;;;;;;;9.45;3.33;;;;;;;11.07;100.00;100989.94;4855528;29;20033;-82
2021/07/20 01:28:10;;;;;;;11.85;3.55;;;;;;;11.11;100.00;100985.56;4871483;29;20025;-82
2021/07/20 01:30:40;;;;;;;8.68;3.55;;;;;;;11.14;100.00;100988.09;4871737;29;20025;-82
2021/07/20 01:33:06;;;;;;;12.20;4.18;;;;;;;11.10;100.00;100978.66;4853190;29;20034;-82
2021/07/20 01:35:34;;;;;;;12.18;3.65;;;;;;;11.06;100.00;100988.22;4852643;29;20029;-82
2021/07/20 01:38:03;;;;;;;10.45;3.47;;;;;;;11.10;100.00;100986.44;4852723;29;20037;-82
2021/07/20 01:40:29;;;;;;;12.32;3.78;;;;;;;11.07;100.00;100981.28;4869366;29;20032;-82
2021/07/20 01:42:56;;;;;;;10.32;4.00;;;;;;;11.09;100.00;100987.34;4851919;29;20033;-82
2021/07/20 01:45:23;;;;;;;10.20;3.60;;;;;;;11.10;100.00;100981.25;4869117;29;20033;-82
2021/07/20 01:47:49;;;;;;;16.23;4.07;;;;;;;11.07;100.00;100978.69;4852157;29;20062;-82
2021/07/20 01:50:17;;;;;;;7.72;3.45;;;;;;;11.09;100.00;100984.72;4851836;29;20032;-82
2021/07/20 01:52:45;;;;;;;11.43;3.78;;;;;;;11.08;100.00;100980.41;4851522;29;20406;-82
2021/07/20 01:55:12;;;;;;;10.60;4.10;;;;;;;11.07;100.00;100978.69;4851337;29;20060;-82
2021/07/20 01:57:39;;;;;;;9.48;3.55;;;;;;;11.07;100.00;100984.75;4852418;29;20034;-82
2021/07/20 02:00:11;;;;;;;13.40;4.07;;;;;;;11.03;100.00;100983.06;4852509;29;20021;-82
2021/07/20 02:02:51;;;;;;;10.13;3.78;;;;;;;10.96;100.00;100985.75;4853446;29;20045;-82
2021/07/20 02:10:51;;;;;;;12.38;4.82;;;;;;;11.02;100.00;100975.28;4870666;29;20041;-82
2021/07/20 02:13:17;;;;;;;7.38;3.75;;;;;;;11.02;100.00;100983.97;4849894;29;20132;-82
2021/07/20 02:15:46;;;;;;;10.07;4.38;;;;;;;11.01;100.00;100979.63;4851014;29;20058;-82
2021/07/20 02:18:12;;;;;;;10.18;4.18;;;;;;;10.97;100.00;100980.56;4852853;29;20041;-82
2021/07/20 02:20:40;;;;;;;10.07;3.70;;;;;;;11.00;100.00;100974.47;4852368;29;20029;-82
2021/07/20 02:23:07;;;;;;;9.80;4.25;;;;;;;10.96;100.00;100977.97;4852870;29;20126;-82
2021/07/20 02:25:33;;;;;;;8.15;3.83;;;;;;;10.99;100.00;100978.81;4852681;29;20029;-82
2021/07/20 02:27:59;;;;;;;10.70;3.75;;;;;;;10.97;100.00;100987.50;4869265;29;20390;-82
2021/07/20 02:30:26;;;;;;;13.57;4.18;;;;;;;10.93;100.00;100978.91;4852225;29;20021;-82
2021/07/20 02:32:52;;;;;;;10.43;4.15;;;;;;;10.92;100.00;100984.94;4853134;29;20032;-82
2021/07/20 02:35:24;;;;;;;10.18;4.70;;;;;;;10.93;100.00;100990.97;4852840;29;20033;-82
2021/07/20 02:37:54;;;;;;;11.95;4.55;;;;;;;10.93;100.00;100985.78;4852428;29;20542;-82
2021/07/20 02:40:24;;;;;;;8.48;4.28;;;;;;;10.92;100.00;100984.09;4852889;29;20026;-83
2021/07/20 02:42:57;;;;;;;12.05;3.85;;;;;;;10.99;100.00;100991.78;4853229;29;20036;-83
2021/07/20 02:45:22;;;;;;;9.30;4.00;;;;;;;11.01;100.00;100986.56;4853120;29;20553;-83
2021/07/20 02:47:49;;;;;;;10.00;4.18;;;;;;;11.10;100.00;100983.00;4853134;29;20067;-83
2021/07/20 02:50:16;;;;;;;8.88;3.92;;;;;;;11.16;100.00;100972.53;4853251;29;20022;-83
2021/07/20 02:52:45;;;;;;;10.05;3.90;;;;;;;11.22;100.00;100975.88;4852861;29;20029;-83
2021/07/20 02:55:13;;;;;;;8.13;4.10;;;;;;;11.31;100.00;100981.84;4852510;29;20084;-83
2021/07/20 02:57:40;;;;;;;14.23;4.35;;;;;;;11.32;100.00;100974.00;4852883;29;20037;-83
2021/07/20 03:00:08;;;;;;;12.45;4.45;;;;;;;11.33;100.00;100980.94;4870439;29;20041;-83
2021/07/20 03:02:36;;;;;;;11.68;4.22;;;;;;;11.29;100.00;100977.50;4853362;29;20026;-83
2021/07/20 03:05:06;;;;;;;8.02;4.07;;;;;;;11.31;100.00;100977.50;4853155;29;20107;-83
2021/07/20 03:07:33;;;;;;;9.20;3.60;;;;;;;11.28;100.00;100975.81;4853028;29;20439;-83
2021/07/20 03:10:00;;;;;;;8.32;4.03;;;;;;;11.34;100.00;100984.38;4853351;29;20048;-83
2021/07/20 03:12:27;;;;;;;11.90;3.97;;;;;;;11.28;100.00;100981.00;4854151;29;20213;-83
2021/07/20 03:14:54;;;;;;;14.85;4.32;;;;;;;11.27;100.00;100991.41;4856368;29;20033;-83
2021/07/20 03:17:22;;;;;;;9.75;3.88;;;;;;;11.27;100.00;100978.44;4856661;29;20490;-83
2021/07/20 03:19:48;;;;;;;11.95;4.28;;;;;;;11.33;100.00;100983.53;4856933;29;20509;-83
2021/07/20 03:22:15;;;;;;;11.90;4.70;;;;;;;11.43;100.00;100982.50;4856825;29;20033;-83
2021/07/20 03:24:42;;;;;;;11.35;4.13;;;;;;;11.50;100.00;100991.91;4882699;29;20040;-83
2021/07/20 03:27:09;;;;;;;13.32;4.60;;;;;;;11.59;100.00;100990.94;4864187;29;20025;-83
2021/07/20 03:29:42;;;;;;;12.85;4.47;;;;;;;11.68;100.00;100992.53;4877924;29;20025;-83
2021/07/20 03:32:14;;;;;;;8.05;3.70;;;;;;;11.73;100.00;100991.59;4878220;29;20033;-83
2021/07/20 03:34:41;;;;;;;10.48;4.28;;;;;;;11.77;100.00;100991.53;4878138;29;20033;-83
2021/07/20 03:37:08;;;;;;;11.95;4.30;;;;;;;11.71;100.00;100987.28;4861944;29;20030;-83
2021/07/20 03:39:36;;;;;;;11.25;4.00;;;;;;;11.72;100.00;100989.84;4861493;29;20025;-82
2021/07/20 03:42:02;;;;;;;11.80;4.00;;;;;;;11.79;100.00;100992.34;4874593;29;20041;-82
2021/07/20 03:44:29;;;;;;;9.10;4.20;;;;;;;11.81;100.00;100990.59;4874345;29;20040;-83
2021/07/20 03:46:55;;;;;;;10.95;4.10;;;;;;;11.80;100.00;100992.34;4856776;29;20081;-83
2021/07/20 03:49:22;;;;;;;10.23;3.75;;;;;;;11.73;100.00;100996.78;4855650;29;20096;-83
2021/07/20 03:51:48;;;;;;;10.68;3.80;;;;;;;11.78;100.00;100994.09;4856258;29;20030;-83
2021/07/20 03:54:14;;;;;;;10.30;4.43;;;;;;;11.82;100.00;101000.94;4856861;29;20043;-82
2021/07/20 03:56:41;;;;;;;13.60;4.40;;;;;;;11.84;100.00;101013.94;4857021;29;20078;-82
2021/07/20 03:59:08;;;;;;;7.63;3.75;;;;;;;11.84;100.00;101004.38;4856311;29;20125;-82
2021/07/20 04:01:36;;;;;;;11.77;4.63;;;;;;;11.78;100.00;101009.69;4856130;29;20499;-82
2021/07/20 04:04:03;;;;;;;13.10;4.22;;;;;;;11.86;100.00;101009.59;4856846;29;20033;-83
2021/07/20 04:06:29;;;;;;;10.75;4.65;;;;;;;11.85;100.00;101007.88;4874133;29;20030;-83
2021/07/20 04:08:56;;;;;;;8.68;4.07;;;;;;;11.84;100.00;101011.34;4856759;29;20029;-83
2021/07/20 04:11:22;;;;;;;10.18;3.90;;;;;;;11.86;100.00;101012.22;4873879;29;20025;-83
2021/07/20 04:13:48;;;;;;;10.05;5.47;;;;;;;11.84;100.00;101019.13;4869326;29;20064;-83
2021/07/20 04:16:15;;;;;;;12.70;4.65;;;;;;;11.91;100.00;101018.16;4869500;29;20054;-82
2021/07/20 04:18:41;;;;;;;11.00;4.88;;;;;;;11.87;100.00;101019.09;4869248;29;20029;-82
2021/07/20 04:21:07;;;;;;;11.15;4.53;;;;;;;11.88;100.00;101016.47;4868338;29;20032;-82
2021/07/20 04:23:34;;;;;;;15.65;5.05;;;;;;;11.95;100.00;101019.84;4868313;29;20045;-82
2021/07/20 04:26:00;;;;;;;11.98;5.10;;;;;;;11.91;100.00;101019.03;4849852;29;20515;-82
2021/07/20 04:28:27;;;;;;;12.35;4.80;;;;;;;12.07;100.00;101021.38;4850870;29;20029;-82
2021/07/20 04:30:53;;;;;;;10.45;5.50;;;;;;;12.14;100.00;101021.25;4867032;29;20025;-82
2021/07/20 04:33:26;;;;;;;8.75;4.88;;;;;;;12.23;100.00;101021.97;4850491;29;20033;-82
2021/07/20 04:35:56;;;;;;;11.15;5.28;;;;;;;12.31;100.00;101020.09;4891876;23;20132;-82
2021/07/20 04:38:23;;;;;;;10.77;4.28;;;;;;;12.31;100.00;101020.94;4854020;29;20029;-82
2021/07/20 04:40:49;;;;;;;9.18;4.82;;;;;;;12.39;100.00;101024.28;4853992;29;20034;-82
2021/07/20 04:43:17;;;;;;;16.25;5.53;;;;;;;12.49;100.00;101024.09;4854354;29;20479;-82
2021/07/20 04:45:45;;;;;;;13.55;5.55;;;;;;;12.42;100.00;101029.41;4854331;29;20124;-82
2021/07/20 04:48:15;;;;;;;15.65;6.20;;;;;;;12.42;100.00;101034.63;4853722;29;20056;-82
2021/07/20 04:50:44;;;;;;;12.80;5.30;;;;;;;12.62;100.00;101038.59;4853989;29;20424;-82
2021/07/20 04:53:11;;;;;;;10.75;5.45;;;;;;;12.64;100.00;101036.81;4852811;29;20037;-82
2021/07/20 04:55:39;;;;;;;13.27;5.65;;;;;;;12.59;100.00;101042.13;4853291;29;20057;-82
2021/07/20 04:58:04;;;;;;;13.07;6.28;;;;;;;12.65;100.00;101047.22;4870491;29;20034;-82
2021/07/20 05:00:31;;;;;;;8.10;5.07;;;;;;;12.73;100.00;101038.41;4854272;29;20074;-82
2021/07/20 05:02:59;;;;;;;12.80;5.20;;;;;;;12.74;100.00;101045.31;4853977;29;20112;-82
2021/07/20 05:05:29;;;;;;;13.73;5.93;;;;;;;12.80;100.00;101047.78;4853602;29;20041;-82
2021/07/20 05:07:56;;;;;;;9.57;5.40;;;;;;;12.93;100.00;101041.47;4850555;29;20033;-82
2021/07/20 05:10:24;;;;;;;12.65;4.97;;;;;;;13.05;100.00;101040.34;4851896;29;20448;-82
2021/07/20 05:12:50;;;;;;;10.75;5.00;;;;;;;13.19;100.00;101040.06;4852374;29;20033;-82
2021/07/20 05:15:18;;;;;;;10.75;4.80;;;;;;;13.26;100.00;101041.66;4868346;29;20097;-82
2021/07/20 05:17:44;;;;;;;13.68;5.13;;;;;;;13.29;100.00;101039.00;4853415;29;20026;-82
2021/07/20 05:20:18;;;;;;;11.77;5.45;;;;;;;13.21;100.00;101046.09;4870173;29;20031;-82
2021/07/20 05:22:44;;;;;;;15.77;5.57;;;;;;;13.25;100.00;101048.63;4853375;29;20029;-82
2021/07/20 05:25:11;;;;;;;11.88;5.22;;;;;;;13.35;100.00;101049.28;4852400;29;20029;-82
2021/07/20 05:27:44;;;;;;;13.45;4.57;;;;;;;13.43;100.00;101044.78;4852973;29;20062;-82
2021/07/20 05:30:11;;;;;;;9.35;5.18;;;;;;;13.57;100.00;101045.31;4870342;29;20025;-82
2021/07/20 05:32:42;;;;;;;9.30;4.50;;;;;;;13.76;100.00;101050.09;4870282;29;20033;-82
2021/07/20 05:35:10;;;;;;;10.43;4.20;;;;;;;13.95;100.00;101046.19;4866952;29;20041;-82
2021/07/20 05:37:37;;;;;;;10.15;4.40;;;;;;;13.84;100.00;101050.78;4868188;29;20036;-83
2021/07/20 05:40:04;;;;;;;10.48;3.55;;;;;;;13.90;100.00;101048.03;4852651;29;20062;-82
2021/07/20 05:42:31;;;;;;;13.27;4.03;;;;;;;13.95;100.00;101048.78;4851277;29;20041;-82
2021/07/20 05:44:57;;;;;;;10.07;3.72;;;;;;;13.97;100.00;101046.97;4867041;29;20068;-81
2021/07/20 05:47:25;;;;;;;10.55;3.92;;;;;;;14.05;100.00;101047.66;4849290;29;20026;-81
2021/07/20 05:49:51;;;;;;;11.93;3.67;;;;;;;14.10;100.00;101044.06;4850052;29;20029;-81
2021/07/20 05:52:17;;;;;;;9.65;3.22;;;;;;;14.11;100.00;101046.66;4849217;29;20086;-81
2021/07/20 05:54:45;;;;;;;14.27;3.53;;;;;;;14.12;100.00;101045.75;4849896;29;20033;-81
2021/07/20 05:57:14;;;;;;;7.90;3.67;;;;;;;14.16;100.00;101044.78;4849345;29;20030;-81
2021/07/20 05:59:42;;;;;;;13.90;4.13;;;;;;;14.24;100.00;101035.00;4849976;29;20037;-81
2021/07/20 06:02:11;;;;;;;11.23;3.38;;;;;;;14.26;100.00;101041.03;4848343;29;20052;-84
2021/07/20 06:04:38;;;;;;;10.52;3.58;;;;;;;14.31;100.00;101035.69;4847110;29;20419;-82
2021/07/20 06:07:09;;;;;;;8.85;3.28;;;;;;;14.47;100.00;101039.63;4849309;29;20032;-81
2021/07/20 06:09:35;;;;;;;6.28;2.63;;;;;;;14.35;100.00;101041.72;4849473;29;20106;-81
2021/07/20 06:12:05;;;;;;;9.77;3.35;;;;;;;14.67;100.00;101043.47;4848675;29;20516;-81
2021/07/20 06:14:32;;;;;;;11.50;3.30;;;;;;;14.84;100.00;101040.38;4849111;29;20038;-81
2021/07/20 06:16:57;;;;;;;6.68;2.30;;;;;;;14.67;100.00;101035.66;4848472;29;20460;-81
2021/07/20 06:19:26;;;;;;;10.40;2.95;;;;;;;14.80;100.00;101039.63;4849113;29;20029;-81
2021/07/20 06:21:56;;;;;;;9.43;2.97;;;;;;;15.16;100.00;101036.88;4849239;29;20471;-81
2021/07/20 06:24:22;;;;;;;8.35;3.05;;;;;;;14.98;100.00;101042.63;4848571;29;20033;-80
2021/07/20 06:26:49;;;;;;;9.18;2.83;;;;;;;15.32;100.00;101039.88;4848284;29;20029;-81
2021/07/20 06:29:18;;;;;;;6.93;2.47;;;;;;;16.08;100.00;101044.47;4847884;29;20025;-81
2021/07/20 06:31:44;;;;;;;10.05;2.95;;;;;;;17.76;89.63;101033.94;4848870;29;20092;-81
2021/07/20 06:34:13;;;;;;;11.38;3.15;;;;;;;17.97;87.15;101043.59;4849226;29;20049;-81
2021/07/20 06:36:42;;;;;;;7.32;2.60;;;;;;;17.57;88.77;101044.31;4848487;29;20029;-81
2021/07/20 06:39:11;;;;;;;10.60;2.72;;;;;;;17.91;88.33;101047.31;4849180;29;20025;-81
2021/07/20 06:41:38;;;;;;;9.90;2.90;;;;;;;17.94;83.00;101043.72;4848340;29;20030;-81
2021/07/20 06:44:06;;;;;;;8.13;2.47;;;;;;;18.51;81.56;101044.81;4848465;29;20097;-81
2021/07/20 06:46:32;;;;;;;9.05;2.10;;;;;;;17.11;88.87;101043.47;4865130;29;20030;-81
2021/07/20 06:49:01;;;;;;;10.57;2.90;;;;;;;16.48;92.80;101043.97;4849088;29;20053;-81
2021/07/20 06:51:30;;;;;;;8.45;2.35;;;;;;;16.38;93.17;101049.56;4848373;29;20112;-81
2021/07/20 06:53:56;;;;;;;9.52;2.58;;;;;;;16.38;93.19;101046.94;4846754;29;20025;-81
2021/07/20 06:56:35;;;;;;;9.95;2.58;;;;;;;16.57;93.21;101050.66;4848278;29;20036;-81
2021/07/20 06:59:02;;;;;;;7.47;2.65;;;;;;;16.71;93.74;101056.22;4847923;29;20101;-81
2021/07/20 07:01:33;;;;;;;9.20;2.50;;;;;;;16.59;93.25;101061.91;4848129;29;20022;-81
2021/07/20 07:04:12;;;;;;;7.05;2.20;;;;;;;16.75;94.09;101054.38;4850508;29;20029;-83
2021/07/20 07:06:43;;;;;;;8.27;3.53;;;;;;;16.31;93.80;101047.16;4848770;29;20030;-83
2021/07/20 07:09:09;;;;;;;8.98;2.22;;;;;;;16.71;91.54;101060.63;4848806;29;20037;-83
2021/07/20 07:11:39;;;;;;;7.60;2.67;;;;;;;16.37;92.56;101058.34;4848168;29;20051;-84
2021/07/20 07:14:09;;;;;;;8.15;2.28;;;;;;;16.54;95.27;101061.22;4864152;29;20040;-83
2021/07/20 07:16:41;;;;;;;9.30;2.65;;;;;;;16.47;92.40;101059.72;4848638;29;20033;-83
2021/07/20 07:19:08;;;;;;;8.13;2.80;;;;;;;16.29;90.82;101061.22;4848168;29;20077;-83
2021/07/20 07:21:38;;;;;;;9.88;2.95;;;;;;;16.47;90.80;101055.34;4847730;29;20034;-83
2021/07/20 07:24:06;;;;;;;9.90;3.30;;;;;;;16.64;90.36;101059.13;4848253;29;20495;-83
2021/07/20 07:26:36;;;;;;;10.55;3.17;;;;;;;16.94;89.71;101065.94;4848048;29;20033;-83
2021/07/20 07:29:05;;;;;;;8.85;2.55;;;;;;;17.38;87.80;101068.66;4847492;29;20040;-83
2021/07/20 07:31:31;;;;;;;13.68;3.03;;;;;;;18.27;84.69;101057.22;4847607;29;20029;-83
2021/07/20 07:33:56;;;;;;;9.20;2.30;;;;;;;18.52;84.33;101066.69;4847143;29;20059;-82
2021/07/20 07:36:22;;;;;;;8.68;3.28;;;;;;;18.53;79.90;101066.59;4864540;29;20040;-83
2021/07/20 07:38:49;;;;;;;8.13;3.00;;;;;;;18.89;76.42;101071.22;4864214;29;20033;-83
2021/07/20 07:41:16;;;;;;;9.32;2.88;;;;;;;19.71;75.53;101066.56;4847381;29;20491;-83
2021/07/20 07:43:45;;;;;;;7.43;3.67;;;;;;;18.52;74.24;101072.78;4848057;29;20041;-83
2021/07/20 07:46:13;;;;;;;8.13;3.30;;;;;;;18.86;75.63;101079.22;4847556;29;20483;-83
2021/07/20 07:48:39;;;;;;;8.02;3.45;;;;;;;19.46;71.91;101068.63;4847198;29;20036;-83
2021/07/20 07:51:07;;;;;;;8.10;3.78;;;;;;;18.98;71.70;101070.81;4847257;29;20025;-84
2021/07/20 07:53:34;;;;;;;11.93;3.50;;;;;;;18.71;74.93;101072.84;4847553;29;20029;-83
2021/07/20 07:56:04;;;;;;;10.13;3.83;;;;;;;19.40;73.78;101077.66;4846912;29;20511;-83
2021/07/20 07:58:31;;;;;;;13.02;3.78;;;;;;;19.93;70.68;101069.00;4864265;29;20056;-83
2021/07/20 08:00:58;;;;;;;7.57;3.40;;;;;;;20.63;68.39;101069.03;4847511;29;20033;-83
2021/07/20 08:03:28;;;;;;;9.82;3.55;;;;;;;21.82;61.48;101059.03;4847423;29;20033;-83
2021/07/20 08:05:54;;;;;;;8.15;4.05;;;;;;;20.53;62.76;101060.72;4846496;29;20105;-84
2021/07/20 08:08:20;;;;;;;11.30;4.30;;;;;;;21.97;60.52;101062.59;4847496;29;20120;-83
2021/07/20 08:10:50;;;;;;;9.15;4.20;;;;;;;22.95;57.13;101065.53;4846951;29;20036;-84
2021/07/20 08:13:18;;;;;;;7.15;3.50;;;;;;;21.37;60.02;101061.53;4846894;29;20490;-83
2021/07/20 08:15:51;;;;;;;8.88;3.47;;;;;;;20.81;64.28;101065.44;4846703;29;20036;-83
2021/07/20 08:18:22;;;;;;;6.78;3.17;;;;;;;21.14;61.38;101072.47;4863089;29;20057;-83
2021/07/20 08:20:54;;;;;;;10.73;3.80;;;;;;;20.35;61.45;101062.53;4846578;29;20061;-83
2021/07/20 08:23:21;;;;;;;8.30;3.60;;;;;;;19.65;63.22;101076.53;4846967;29;20026;-83
2021/07/20 08:25:52;;;;;;;10.70;3.78;;;;;;;19.70;63.34;101066.63;4846900;29;20473;-83
2021/07/20 08:28:32;;;;;;;8.57;3.58;;;;;;;20.31;63.68;101071.50;4846302;29;20033;-83
2021/07/20 08:31:03;;;;;;;8.02;3.40;;;;;;;20.53;62.55;101063.38;4846053;29;20025;-83
2021/07/20 08:33:32;;;;;;;10.88;3.75;;;;;;;21.17;59.48;101064.38;4846984;29;20026;-83
2021/07/20 08:36:03;;;;;;;8.27;3.38;;;;;;;21.82;55.52;101059.03;4845909;29;20495;-83
2021/07/20 08:38:31;;;;;;;9.25;3.45;;;;;;;22.12;53.29;101061.69;4846572;29;20072;-83
2021/07/20 08:40:59;;;;;;;7.90;3.75;;;;;;;20.61;57.49;101069.09;4846026;29;20066;-84
2021/07/20 08:43:42;;;;;;;8.68;3.40;;;;;;;20.23;62.47;101063.16;4862328;29;20057;-83
2021/07/20 08:46:13;;;;;;;10.02;3.50;;;;;;;20.83;59.55;101066.19;4862620;29;20501;-83
2021/07/20 08:48:47;;;;;;;9.38;3.78;;;;;;;20.57;61.29;101067.56;4846186;29;20037;-83
2021/07/20 08:51:18;;;;;;;8.73;3.78;;;;;;;19.44;64.19;101070.47;4846439;29;20033;-83
2021/07/20 08:53:53;;;;;;;6.10;3.40;;;;;;;18.63;66.85;101081.06;4846067;29;20026;-83
2021/07/20 08:56:20;;;;;;;8.70;3.35;;;;;;;18.77;69.41;101082.28;4845616;29;20030;-83
2021/07/20 08:58:50;;;;;;;11.73;3.90;;;;;;;18.55;70.86;101075.28;4846377;29;20037;-83
2021/07/20 09:01:25;;;;;;;6.38;3.13;;;;;;;18.10;70.66;101076.31;4846000;29;20120;-83
2021/07/20 09:04:00;;;;;;;10.27;3.75;;;;;;;17.81;72.20;101079.28;4846400;29;20128;-83
2021/07/20 09:06:48;;;;;;;9.30;3.75;;;;;;;17.47;73.15;101080.56;4862672;29;20034;-83
2021/07/20 09:09:25;;;;;;;11.40;4.05;;;;;;;17.35;74.09;101088.91;4846613;29;20025;-83
2021/07/20 09:12:01;;;;;;;9.18;3.08;;;;;;;17.34;75.88;101084.56;4862308;29;20029;-83
2021/07/20 09:14:31;;;;;;;7.68;3.50;;;;;;;17.40;73.87;101089.59;4845760;29;20029;-83
2021/07/20 09:17:14;;;;;;;13.75;4.10;;;;;;;17.70;73.18;101092.75;4862117;29;20033;-83
2021/07/20 09:20:04;;;;;;;7.95;3.50;;;;;;;18.22;71.13;101090.69;4845516;29;20090;-83
2021/07/20 09:22:52;;;;;;;8.82;4.10;;;;;;;18.58;69.10;101093.53;4845218;29;20030;-83
2021/07/20 09:25:32;;;;;;;7.38;3.88;;;;;;;17.87;70.75;101082.50;4844683;29;20093;-83
2021/07/20 09:28:18;;;;;;;10.32;3.83;;;;;;;17.82;71.97;101080.97;4862392;29;20074;-83
2021/07/20 09:30:47;;;;;;;10.25;4.55;;;;;;;17.75;71.76;101095.22;4845960;29;20033;-83
2021/07/20 09:33:24;;;;;;;10.52;4.25;;;;;;;17.51;72.27;101092.63;4862178;29;20064;-83
2021/07/20 09:35:52;;;;;;;11.85;4.60;;;;;;;17.55;73.10;101088.13;4845372;29;20029;-83
2021/07/20 09:38:46;;;;;;;8.68;4.22;;;;;;;17.80;72.22;101093.31;4845542;29;20539;-83
2021/07/20 09:41:33;;;;;;;10.23;4.72;;;;;;;17.94;71.25;101091.81;4845279;29;20471;-83
2021/07/20 09:44:10;;;;;;;9.38;4.50;;;;;;;18.38;69.95;101088.28;4845649;29;20040;-83
2021/07/20 09:46:54;;;;;;;13.52;4.55;;;;;;;19.14;67.38;101092.00;4861577;29;20511;-83
2021/07/20 09:49:38;;;;;;;10.80;4.45;;;;;;;20.14;64.87;101089.94;4845043;29;20036;-83
2021/07/20 09:52:25;;;;;;;10.15;4.20;;;;;;;20.18;62.47;101091.47;4845892;29;20033;-83
2021/07/20 09:55:01;;;;;;;8.38;3.85;;;;;;;19.21;62.11;101090.81;4861783;29;20116;-84
2021/07/20 09:57:33;;;;;;;8.07;3.80;;;;;;;18.67;63.35;101094.94;4861374;29;20454;-84
2021/07/20 10:00:11;;;;;;;8.13;4.05;;;;;;;18.58;67.26;101098.78;4861429;29;20114;-84
2021/07/20 10:02:56;;;;;;;8.90;3.80;;;;;;;18.04;69.27;101087.06;4861145;29;20036;-86
2021/07/20 10:05:37;;;;;;;10.98;4.72;;;;;;;17.87;73.87;101090.38;4844552;29;20033;-84
2021/07/20 10:08:13;;;;;;;9.45;4.93;;;;;;;17.68;72.28;101103.34;4845405;29;20041;-83
2021/07/20 10:10:51;;;;;;;9.38;4.20;;;;;;;17.57;75.18;101097.63;4844536;29;20018;-84
2021/07/20 10:13:37;;;;;;;11.90;4.55;;;;;;;17.41;71.69;101100.00;4844651;29;20025;-83
2021/07/20 10:16:18;;;;;;;9.93;4.95;;;;;;;17.30;72.04;101101.31;4845347;29;20025;-83
2021/07/20 10:19:10;;;;;;;9.88;5.10;;;;;;;17.79;73.07;101096.84;4861661;29;20074;-83
2021/07/20 10:21:38;;;;;;;11.98;5.13;;;;;;;18.33;71.42;101093.75;4857259;29;20041;-83
2021/07/20 10:24:20;;;;;;;13.88;4.85;;;;;;;18.67;70.45;101088.81;4852762;29;20409;-83
2021/07/20 10:27:13;;;;;;;11.43;4.78;;;;;;;19.24;65.24;101082.78;4861243;29;20037;-84
2021/07/20 10:30:10;;;;;;;9.30;4.60;;;;;;;20.73;62.12;101078.16;4844426;29;20026;-84
2021/07/20 10:33:08;;;;;;;11.65;5.18;;;;;;;22.34;53.29;101077.16;4844332;29;20080;-84
2021/07/20 10:35:44;;;;;;;10.70;5.45;;;;;;;22.81;52.92;101080.53;4891844;23;20079;-82
2021/07/20 10:38:11;;;;;;;8.95;4.60;;;;;;;21.91;55.62;101068.22;4859777;29;20025;-82
2021/07/20 10:40:38;;;;;;;11.10;5.57;;;;;;;21.03;57.62;101065.16;4860991;29;20045;-81
2021/07/20 10:43:12;;;;;;;9.80;5.10;;;;;;;20.13;59.54;101065.34;4879591;29;20053;-82
2021/07/20 10:45:38;;;;;;;8.93;4.80;;;;;;;19.34;61.74;101058.69;4862473;29;20044;-82
2021/07/20 10:48:10;;;;;;;8.27;4.63;;;;;;;20.19;62.60;101058.94;4879366;29;20037;-82
2021/07/20 10:50:54;;;;;;;8.80;4.03;;;;;;;23.07;53.68;101056.00;4864128;29;20045;-82
2021/07/20 10:53:35;;;;;;;8.10;4.50;;;;;;;23.64;50.46;101055.84;4869816;29;20053;-82
2021/07/20 10:56:41;;;;;;;7.85;4.35;;;;;;;23.35;49.12;101051.59;4888141;29;20057;-82
2021/07/20 10:59:19;;;;;;;9.15;4.93;;;;;;;23.05;50.58;101044.66;4872628;29;20033;-81
2021/07/20 11:01:56;;;;;;;8.60;4.45;;;;;;;23.86;48.56;101043.88;4888828;29;20018;-82
2021/07/20 11:04:30;;;;;;;8.43;4.30;;;;;;;23.13;48.66;101038.91;4872709;29;20018;-83
2021/07/20 11:06:56;;;;;;;9.00;3.75;;;;;;;23.56;48.53;101042.28;4872760;29;20018;-82
2021/07/20 11:09:25;;;;;;;9.50;4.32;;;;;;;24.86;47.71;101040.63;4872638;29;20064;-82
2021/07/20 11:11:54;;;;;;;13.00;4.40;;;;;;;22.66;52.39;101043.53;4865207;29;20040;-82
2021/07/20 11:14:33;;;;;;;7.68;4.22;;;;;;;22.83;51.35;101050.41;4851969;29;20482;-82
2021/07/20 11:16:59;;;;;;;9.40;3.88;;;;;;;23.31;48.56;101034.22;4852709;29;20086;-82
2021/07/20 11:19:27;;;;;;;10.48;4.20;;;;;;;23.25;49.47;101037.28;4852080;29;20447;-82
2021/07/20 11:21:56;;;;;;;7.95;3.88;;;;;;;21.97;52.53;101046.72;4869464;29;20031;-82
2021/07/20 11:24:23;;;;;;;9.38;4.30;;;;;;;20.91;52.55;101040.28;4870057;29;20025;-82
2021/07/20 11:26:48;;;;;;;10.30;4.50;;;;;;;21.16;53.62;101036.31;4870633;29;20036;-82
2021/07/20 11:29:15;;;;;;;7.32;4.40;;;;;;;20.32;58.34;101038.09;4870470;29;20033;-82
2021/07/20 11:31:55;;;;;;;7.13;4.18;;;;;;;20.38;59.41;101036.03;4853271;29;20041;-82
2021/07/20 11:34:30;;;;;;;8.35;4.07;;;;;;;21.56;56.18;101037.59;4852758;29;20037;-81